Airfield :
LOGIN :

Register | Disclaimer

   EN    FR    IT 

 










Legend :    VFR   Marginal VFR   IFR   Intensive IFR   Very Intensive IFR
Visi :
Ceiling :
>= 8 km
>= 3000ft
5 to 8 km
1000 to 3000 ft
1500m to 5 km
500 to 1000 ft
800 to 1500m
200 to 500 ft
< 800m
< 200 ft
Symbols :   Thunderstorms  Fog  Heavy snow  Heavy precipitations  Wind > 20 kt
SIGMETs :     Misc.  Thunderstorms  Icing  Turbulence  Mountain Waves  Volcanic Ashes







- Airport Elevation : 412 ft
- IATA code : ADB


LTBJ - Adnan Menderes

CURRENT METAR :
  • 242320Z 00000KT 9999 FEW036 15/13 Q1012 NOSIG RMK RWY16 09004KT 350V120

EXPIRED METARs :
  • 242250Z VRB01KT 9999 FEW040 15/13 Q1011 NOSIG
  • 242220Z VRB01KT CAVOK 15/13 Q1011 NOSIG
  • 242150Z 00000KT CAVOK 16/13 Q1011 NOSIG RMK RWY16 33004KT 300V360
  • 242120Z 36004KT 310V040 CAVOK 17/13 Q1011 NOSIG
  • 242050Z 32005KT 280V020 CAVOK 18/14 Q1011 NOSIG RMK RWY16 32006KT

TAF TAF LTBJ
Valid from the 25 at 00:00 until the 26 at 00:00 UTC


242240Z 2500/2524 VRB02KT CAVOK
PROB30 2503/2506 3200 BR SCT010
BECMG 2505/2507 SCT030
PROB40
TEMPO 2509/2513 22014KT -TSRA FEW015CB BKN025
No reported NOTAMs for that airfield.



MET'MAP, your aeronautical weather chart ! - Copyright ORBIFLY December 2007 - Disclaimer

ORBIFLY MET'MAP TEAM :

Programming & Development : Alexandra Zaïnal
Concept & Development : Baudouin d'Aumeries
Co-Development & Prog : Marc-Olivier Méhu
Technical & hardware support : Manuel Goepfert

Contact : metmap@orbifly.com




SOURCES & CREDITS :

   NOAA